sensor_id;sensor_type;location;lat;lon;timestamp;P1;durP1;ratioP1;P2;durP2;ratioP2
29344;SDS011;16339;48.748;2.222;2022-11-20T00:01:39;20.75;;;6.63;;
29344;SDS011;16339;48.748;2.222;2022-11-20T00:04:08;20.17;;;6.80;;
29344;SDS011;16339;48.748;2.222;2022-11-20T00:06:38;13.88;;;6.38;;
29344;SDS011;16339;48.748;2.222;2022-11-20T00:09:09;13.75;;;6.97;;
29344;SDS011;16339;48.748;2.222;2022-11-20T00:11:38;20.30;;;7.75;;
29344;SDS011;16339;48.748;2.222;2022-11-20T00:14:11;20.15;;;8.07;;
29344;SDS011;16339;48.748;2.222;2022-11-20T00:16:39;23.42;;;7.63;;
29344;SDS011;16339;48.748;2.222;2022-11-20T00:19:08;20.48;;;6.85;;
29344;SDS011;16339;48.748;2.222;2022-11-20T00:21:37;18.45;;;6.75;;
29344;SDS011;16339;48.748;2.222;2022-11-20T00:24:08;18.38;;;7.70;;
29344;SDS011;16339;48.748;2.222;2022-11-20T00:26:37;17.48;;;6.47;;
29344;SDS011;16339;48.748;2.222;2022-11-20T00:29:05;15.75;;;6.70;;
29344;SDS011;16339;48.748;2.222;2022-11-20T00:31:38;14.90;;;6.07;;
29344;SDS011;16339;48.748;2.222;2022-11-20T00:34:08;9.77;;;4.90;;
29344;SDS011;16339;48.748;2.222;2022-11-20T00:36:37;10.75;;;5.18;;
29344;SDS011;16339;48.748;2.222;2022-11-20T00:39:06;11.82;;;4.43;;
29344;SDS011;16339;48.748;2.222;2022-11-20T00:41:34;11.02;;;4.70;;
29344;SDS011;16339;48.748;2.222;2022-11-20T00:44:03;13.38;;;5.00;;
29344;SDS011;16339;48.748;2.222;2022-11-20T00:46:34;13.23;;;5.80;;
29344;SDS011;16339;48.748;2.222;2022-11-20T00:49:03;15.00;;;4.80;;
29344;SDS011;16339;48.748;2.222;2022-11-20T00:51:32;9.45;;;4.05;;
29344;SDS011;16339;48.748;2.222;2022-11-20T00:54:01;11.88;;;4.55;;
29344;SDS011;16339;48.748;2.222;2022-11-20T00:56:29;16.88;;;5.07;;
29344;SDS011;16339;48.748;2.222;2022-11-20T00:58:59;19.58;;;8.18;;
29344;SDS011;16339;48.748;2.222;2022-11-20T01:01:28;16.27;;;6.00;;
29344;SDS011;16339;48.748;2.222;2022-11-20T01:04:00;14.07;;;5.55;;
29344;SDS011;16339;48.748;2.222;2022-11-20T01:06:29;16.88;;;7.10;;
29344;SDS011;16339;48.748;2.222;2022-11-20T01:08:59;16.80;;;6.63;;
29344;SDS011;16339;48.748;2.222;2022-11-20T01:11:30;22.30;;;9.20;;
29344;SDS011;16339;48.748;2.222;2022-11-20T01:14:00;12.60;;;5.70;;
29344;SDS011;16339;48.748;2.222;2022-11-20T01:16:31;11.68;;;4.55;;
29344;SDS011;16339;48.748;2.222;2022-11-20T01:19:05;12.45;;;4.85;;
29344;SDS011;16339;48.748;2.222;2022-11-20T01:21:35;16.25;;;4.88;;
29344;SDS011;16339;48.748;2.222;2022-11-20T01:24:06;13.63;;;5.90;;
29344;SDS011;16339;48.748;2.222;2022-11-20T01:26:36;17.10;;;6.65;;
29344;SDS011;16339;48.748;2.222;2022-11-20T01:29:06;15.90;;;6.18;;
29344;SDS011;16339;48.748;2.222;2022-11-20T01:31:38;13.00;;;4.75;;
29344;SDS011;16339;48.748;2.222;2022-11-20T01:34:10;17.85;;;6.10;;
29344;SDS011;16339;48.748;2.222;2022-11-20T01:36:41;15.20;;;5.85;;
29344;SDS011;16339;48.748;2.222;2022-11-20T01:39:11;12.45;;;5.13;;
29344;SDS011;16339;48.748;2.222;2022-11-20T01:44:39;11.27;;;4.63;;
29344;SDS011;16339;48.748;2.222;2022-11-20T01:47:16;17.17;;;4.30;;
29344;SDS011;16339;48.748;2.222;2022-11-20T01:49:53;13.98;;;4.68;;
29344;SDS011;16339;48.748;2.222;2022-11-20T01:52:27;9.18;;;4.30;;
29344;SDS011;16339;48.748;2.222;2022-11-20T01:55:02;9.95;;;4.20;;
29344;SDS011;16339;48.748;2.222;2022-11-20T01:57:34;13.38;;;3.97;;
29344;SDS011;16339;48.748;2.222;2022-11-20T02:00:05;17.67;;;4.00;;
29344;SDS011;16339;48.748;2.222;2022-11-20T02:02:35;7.80;;;4.00;;
29344;SDS011;16339;48.748;2.222;2022-11-20T02:05:11;14.93;;;3.78;;
29344;SDS011;16339;48.748;2.222;2022-11-20T02:07:45;10.02;;;3.60;;
29344;SDS011;16339;48.748;2.222;2022-11-20T02:10:15;7.57;;;2.97;;
29344;SDS011;16339;48.748;2.222;2022-11-20T02:12:44;14.18;;;3.72;;
29344;SDS011;16339;48.748;2.222;2022-11-20T02:15:25;9.45;;;3.50;;
29344;SDS011;16339;48.748;2.222;2022-11-20T02:17:54;9.25;;;3.50;;
29344;SDS011;16339;48.748;2.222;2022-11-20T02:20:25;13.60;;;3.28;;
29344;SDS011;16339;48.748;2.222;2022-11-20T02:25:27;12.48;;;3.72;;
29344;SDS011;16339;48.748;2.222;2022-11-20T02:27:57;7.63;;;3.42;;
29344;SDS011;16339;48.748;2.222;2022-11-20T02:30:26;11.85;;;3.63;;
29344;SDS011;16339;48.748;2.222;2022-11-20T02:32:55;10.73;;;3.78;;
29344;SDS011;16339;48.748;2.222;2022-11-20T02:35:38;9.48;;;4.28;;
29344;SDS011;16339;48.748;2.222;2022-11-20T02:38:12;13.68;;;4.78;;
29344;SDS011;16339;48.748;2.222;2022-11-20T02:40:44;8.75;;;5.13;;
29344;SDS011;16339;48.748;2.222;2022-11-20T02:43:15;10.63;;;5.32;;
29344;SDS011;16339;48.748;2.222;2022-11-20T02:45:44;11.57;;;4.45;;
29344;SDS011;16339;48.748;2.222;2022-11-20T02:48:12;11.98;;;4.65;;
29344;SDS011;16339;48.748;2.222;2022-11-20T02:50:41;10.82;;;5.10;;
29344;SDS011;16339;48.748;2.222;2022-11-20T02:53:10;12.75;;;4.00;;
29344;SDS011;16339;48.748;2.222;2022-11-20T02:55:38;10.50;;;4.40;;
29344;SDS011;16339;48.748;2.222;2022-11-20T02:58:10;13.45;;;4.10;;
29344;SDS011;16339;48.748;2.222;2022-11-20T03:00:39;9.52;;;3.20;;
29344;SDS011;16339;48.748;2.222;2022-11-20T03:03:07;10.73;;;3.80;;
29344;SDS011;16339;48.748;2.222;2022-11-20T03:05:36;9.73;;;3.42;;
29344;SDS011;16339;48.748;2.222;2022-11-20T03:08:05;6.88;;;3.25;;
29344;SDS011;16339;48.748;2.222;2022-11-20T03:10:34;10.43;;;3.03;;
29344;SDS011;16339;48.748;2.222;2022-11-20T03:13:02;11.93;;;3.20;;
29344;SDS011;16339;48.748;2.222;2022-11-20T03:15:34;8.30;;;3.40;;
29344;SDS011;16339;48.748;2.222;2022-11-20T03:18:04;11.18;;;3.55;;
29344;SDS011;16339;48.748;2.222;2022-11-20T03:20:33;8.43;;;3.70;;
29344;SDS011;16339;48.748;2.222;2022-11-20T03:23:02;9.02;;;3.42;;
29344;SDS011;16339;48.748;2.222;2022-11-20T03:25:31;8.30;;;3.60;;
29344;SDS011;16339;48.748;2.222;2022-11-20T03:28:00;9.00;;;3.22;;
29344;SDS011;16339;48.748;2.222;2022-11-20T03:30:29;12.50;;;3.22;;
29344;SDS011;16339;48.748;2.222;2022-11-20T03:33:01;13.43;;;3.13;;
29344;SDS011;16339;48.748;2.222;2022-11-20T03:37:58;10.77;;;2.80;;
29344;SDS011;16339;48.748;2.222;2022-11-20T03:40:30;8.57;;;2.90;;
29344;SDS011;16339;48.748;2.222;2022-11-20T03:43:01;9.52;;;3.22;;
29344;SDS011;16339;48.748;2.222;2022-11-20T03:45:30;8.57;;;3.30;;
29344;SDS011;16339;48.748;2.222;2022-11-20T03:48:01;9.27;;;3.63;;
29344;SDS011;16339;48.748;2.222;2022-11-20T03:50:30;12.00;;;4.88;;
29344;SDS011;16339;48.748;2.222;2022-11-20T03:52:58;7.38;;;3.83;;
29344;SDS011;16339;48.748;2.222;2022-11-20T03:55:27;7.60;;;3.92;;
29344;SDS011;16339;48.748;2.222;2022-11-20T03:57:56;11.77;;;3.88;;
29344;SDS011;16339;48.748;2.222;2022-11-20T04:00:24;10.10;;;4.20;;
29344;SDS011;16339;48.748;2.222;2022-11-20T04:02:53;11.50;;;4.72;;
29344;SDS011;16339;48.748;2.222;2022-11-20T04:05:27;15.77;;;5.50;;
29344;SDS011;16339;48.748;2.222;2022-11-20T04:10:25;9.07;;;3.65;;
29344;SDS011;16339;48.748;2.222;2022-11-20T04:12:54;14.30;;;4.32;;
29344;SDS011;16339;48.748;2.222;2022-11-20T04:15:22;8.75;;;3.95;;
29344;SDS011;16339;48.748;2.222;2022-11-20T04:17:51;10.02;;;5.13;;
29344;SDS011;16339;48.748;2.222;2022-11-20T04:20:21;13.60;;;5.75;;
29344;SDS011;16339;48.748;2.222;2022-11-20T04:22:55;10.75;;;5.47;;
29344;SDS011;16339;48.748;2.222;2022-11-20T04:25:23;16.15;;;5.68;;
29344;SDS011;16339;48.748;2.222;2022-11-20T04:27:52;10.43;;;4.60;;
29344;SDS011;16339;48.748;2.222;2022-11-20T04:30:21;11.43;;;4.70;;
29344;SDS011;16339;48.748;2.222;2022-11-20T04:32:50;10.75;;;5.20;;
29344;SDS011;16339;48.748;2.222;2022-11-20T04:35:19;13.38;;;5.55;;
29344;SDS011;16339;48.748;2.222;2022-11-20T04:37:50;10.75;;;4.70;;
29344;SDS011;16339;48.748;2.222;2022-11-20T04:40:22;9.85;;;4.60;;
29344;SDS011;16339;48.748;2.222;2022-11-20T04:42:50;8.68;;;4.05;;
29344;SDS011;16339;48.748;2.222;2022-11-20T04:45:19;8.20;;;4.47;;
29344;SDS011;16339;48.748;2.222;2022-11-20T04:47:48;12.05;;;5.13;;
29344;SDS011;16339;48.748;2.222;2022-11-20T04:50:16;21.75;;;5.20;;
29344;SDS011;16339;48.748;2.222;2022-11-20T04:52:45;11.32;;;5.20;;
29344;SDS011;16339;48.748;2.222;2022-11-20T04:55:14;12.23;;;4.72;;
29344;SDS011;16339;48.748;2.222;2022-11-20T04:57:45;8.57;;;4.82;;
29344;SDS011;16339;48.748;2.222;2022-11-20T05:00:18;6.55;;;4.22;;
29344;SDS011;16339;48.748;2.222;2022-11-20T05:02:47;15.93;;;4.70;;
29344;SDS011;16339;48.748;2.222;2022-11-20T05:05:16;13.18;;;4.57;;
29344;SDS011;16339;48.748;2.222;2022-11-20T05:07:44;8.43;;;3.95;;
29344;SDS011;16339;48.748;2.222;2022-11-20T05:10:13;9.93;;;4.20;;
29344;SDS011;16339;48.748;2.222;2022-11-20T05:12:45;9.45;;;3.53;;
29344;SDS011;16339;48.748;2.222;2022-11-20T05:15:14;15.75;;;4.65;;
29344;SDS011;16339;48.748;2.222;2022-11-20T05:17:46;14.07;;;3.88;;
29344;SDS011;16339;48.748;2.222;2022-11-20T05:20:15;13.27;;;4.15;;
29344;SDS011;16339;48.748;2.222;2022-11-20T05:22:44;14.50;;;3.83;;
29344;SDS011;16339;48.748;2.222;2022-11-20T05:25:13;15.98;;;3.53;;
29344;SDS011;16339;48.748;2.222;2022-11-20T05:27:44;9.10;;;3.22;;
29344;SDS011;16339;48.748;2.222;2022-11-20T05:30:13;9.93;;;3.38;;
29344;SDS011;16339;48.748;2.222;2022-11-20T05:32:42;10.98;;;3.35;;
29344;SDS011;16339;48.748;2.222;2022-11-20T05:35:11;11.27;;;4.03;;
29344;SDS011;16339;48.748;2.222;2022-11-20T05:37:40;9.00;;;3.47;;
29344;SDS011;16339;48.748;2.222;2022-11-20T05:40:09;6.30;;;3.60;;
29344;SDS011;16339;48.748;2.222;2022-11-20T05:42:39;9.07;;;3.25;;
29344;SDS011;16339;48.748;2.222;2022-11-20T05:45:11;8.25;;;3.78;;
29344;SDS011;16339;48.748;2.222;2022-11-20T05:50:08;13.48;;;3.13;;
29344;SDS011;16339;48.748;2.222;2022-11-20T05:52:37;10.98;;;3.53;;
29344;SDS011;16339;48.748;2.222;2022-11-20T05:55:06;9.05;;;3.42;;
29344;SDS011;16339;48.748;2.222;2022-11-20T05:57:35;9.73;;;3.08;;
29344;SDS011;16339;48.748;2.222;2022-11-20T06:00:05;9.43;;;4.20;;
29344;SDS011;16339;48.748;2.222;2022-11-20T06:02:37;15.80;;;4.73;;
29344;SDS011;16339;48.748;2.222;2022-11-20T06:07:35;11.48;;;4.07;;
29344;SDS011;16339;48.748;2.222;2022-11-20T06:10:04;8.68;;;4.20;;
29344;SDS011;16339;48.748;2.222;2022-11-20T06:12:33;18.42;;;4.47;;
29344;SDS011;16339;48.748;2.222;2022-11-20T06:15:02;12.00;;;4.45;;
29344;SDS011;16339;48.748;2.222;2022-11-20T06:17:31;12.60;;;4.18;;
29344;SDS011;16339;48.748;2.222;2022-11-20T06:20:02;17.25;;;4.95;;
29344;SDS011;16339;48.748;2.222;2022-11-20T06:22:31;15.43;;;4.72;;
29344;SDS011;16339;48.748;2.222;2022-11-20T06:25:00;8.38;;;4.97;;
29344;SDS011;16339;48.748;2.222;2022-11-20T06:27:29;12.05;;;4.50;;
29344;SDS011;16339;48.748;2.222;2022-11-20T06:29:58;10.20;;;4.57;;
29344;SDS011;16339;48.748;2.222;2022-11-20T06:32:26;11.48;;;4.50;;
29344;SDS011;16339;48.748;2.222;2022-11-20T06:34:55;9.43;;;4.20;;
29344;SDS011;16339;48.748;2.222;2022-11-20T06:37:26;14.95;;;4.18;;
29344;SDS011;16339;48.748;2.222;2022-11-20T06:39:55;8.50;;;3.33;;
29344;SDS011;16339;48.748;2.222;2022-11-20T06:42:24;12.57;;;4.07;;
29344;SDS011;16339;48.748;2.222;2022-11-20T06:44:52;12.27;;;4.70;;
29344;SDS011;16339;48.748;2.222;2022-11-20T06:47:22;8.18;;;4.35;;
29344;SDS011;16339;48.748;2.222;2022-11-20T06:49:50;11.95;;;5.05;;
29344;SDS011;16339;48.748;2.222;2022-11-20T06:52:19;11.20;;;5.00;;
29344;SDS011;16339;48.748;2.222;2022-11-20T06:54:50;11.55;;;4.57;;
29344;SDS011;16339;48.748;2.222;2022-11-20T06:57:19;9.40;;;4.35;;
29344;SDS011;16339;48.748;2.222;2022-11-20T06:59:48;14.18;;;4.65;;
29344;SDS011;16339;48.748;2.222;2022-11-20T07:02:17;13.85;;;5.00;;
29344;SDS011;16339;48.748;2.222;2022-11-20T07:04:45;10.80;;;4.43;;
29344;SDS011;16339;48.748;2.222;2022-11-20T07:07:14;16.60;;;4.95;;
29344;SDS011;16339;48.748;2.222;2022-11-20T07:09:43;11.15;;;4.53;;
29344;SDS011;16339;48.748;2.222;2022-11-20T07:12:14;11.13;;;5.15;;
29344;SDS011;16339;48.748;2.222;2022-11-20T07:14:42;14.13;;;4.68;;
29344;SDS011;16339;48.748;2.222;2022-11-20T07:17:11;10.93;;;5.10;;
29344;SDS011;16339;48.748;2.222;2022-11-20T07:19:40;15.55;;;4.57;;
29344;SDS011;16339;48.748;2.222;2022-11-20T07:22:09;12.30;;;4.45;;
29344;SDS011;16339;48.748;2.222;2022-11-20T07:24:38;15.23;;;4.80;;
29344;SDS011;16339;48.748;2.222;2022-11-20T07:27:06;9.10;;;4.32;;
29344;SDS011;16339;48.748;2.222;2022-11-20T07:29:38;15.25;;;5.07;;
29344;SDS011;16339;48.748;2.222;2022-11-20T07:32:07;21.70;;;6.80;;
29344;SDS011;16339;48.748;2.222;2022-11-20T07:34:35;15.80;;;8.13;;
29344;SDS011;16339;48.748;2.222;2022-11-20T07:37:04;10.23;;;4.93;;
29344;SDS011;16339;48.748;2.222;2022-11-20T07:39:33;13.95;;;5.07;;
29344;SDS011;16339;48.748;2.222;2022-11-20T07:42:02;23.35;;;4.47;;
29344;SDS011;16339;48.748;2.222;2022-11-20T07:44:30;13.40;;;4.57;;
29344;SDS011;16339;48.748;2.222;2022-11-20T07:47:02;14.13;;;4.32;;
29344;SDS011;16339;48.748;2.222;2022-11-20T07:51:59;11.38;;;3.67;;
29344;SDS011;16339;48.748;2.222;2022-11-20T07:54:27;12.82;;;4.28;;
29344;SDS011;16339;48.748;2.222;2022-11-20T07:56:56;12.52;;;5.32;;
29344;SDS011;16339;48.748;2.222;2022-11-20T07:59:25;19.80;;;6.70;;
29344;SDS011;16339;48.748;2.222;2022-11-20T08:01:53;19.65;;;6.60;;
29344;SDS011;16339;48.748;2.222;2022-11-20T08:04:25;14.68;;;5.13;;
29344;SDS011;16339;48.748;2.222;2022-11-20T08:06:54;15.52;;;4.93;;
29344;SDS011;16339;48.748;2.222;2022-11-20T08:09:23;17.10;;;4.90;;
29344;SDS011;16339;48.748;2.222;2022-11-20T08:11:51;10.88;;;4.75;;
29344;SDS011;16339;48.748;2.222;2022-11-20T08:14:32;15.73;;;4.65;;
29344;SDS011;16339;48.748;2.222;2022-11-20T08:17:01;15.27;;;4.00;;
29344;SDS011;16339;48.748;2.222;2022-11-20T08:19:33;12.82;;;4.95;;
29344;SDS011;16339;48.748;2.222;2022-11-20T08:22:01;10.63;;;5.00;;
29344;SDS011;16339;48.748;2.222;2022-11-20T08:24:30;15.75;;;5.50;;
29344;SDS011;16339;48.748;2.222;2022-11-20T08:26:59;11.98;;;4.82;;
29344;SDS011;16339;48.748;2.222;2022-11-20T08:29:28;14.43;;;5.20;;
29344;SDS011;16339;48.748;2.222;2022-11-20T08:31:56;16.05;;;5.70;;
29344;SDS011;16339;48.748;2.222;2022-11-20T08:34:25;13.85;;;5.40;;
29344;SDS011;16339;48.748;2.222;2022-11-20T08:36:56;14.60;;;5.15;;
29344;SDS011;16339;48.748;2.222;2022-11-20T08:39:25;13.88;;;6.22;;
29344;SDS011;16339;48.748;2.222;2022-11-20T08:41:54;21.10;;;6.30;;
29344;SDS011;16339;48.748;2.222;2022-11-20T08:44:22;14.55;;;5.78;;
29344;SDS011;16339;48.748;2.222;2022-11-20T08:46:51;19.92;;;6.65;;
29344;SDS011;16339;48.748;2.222;2022-11-20T08:49:20;25.60;;;6.07;;
29344;SDS011;16339;48.748;2.222;2022-11-20T08:51:49;13.13;;;5.95;;
29344;SDS011;16339;48.748;2.222;2022-11-20T08:54:22;12.48;;;5.78;;
29344;SDS011;16339;48.748;2.222;2022-11-20T08:56:51;18.08;;;6.88;;
29344;SDS011;16339;48.748;2.222;2022-11-20T08:59:20;16.52;;;5.75;;
29344;SDS011;16339;48.748;2.222;2022-11-20T09:01:48;16.55;;;5.70;;
29344;SDS011;16339;48.748;2.222;2022-11-20T09:04:17;14.68;;;6.00;;
29344;SDS011;16339;48.748;2.222;2022-11-20T09:06:46;15.80;;;6.18;;
29344;SDS011;16339;48.748;2.222;2022-11-20T09:09:16;20.15;;;5.95;;
29344;SDS011;16339;48.748;2.222;2022-11-20T09:11:47;16.75;;;5.90;;
29344;SDS011;16339;48.748;2.222;2022-11-20T09:14:17;26.33;;;6.43;;
29344;SDS011;16339;48.748;2.222;2022-11-20T09:16:46;15.35;;;5.55;;
29344;SDS011;16339;48.748;2.222;2022-11-20T09:19:15;12.43;;;5.30;;
29344;SDS011;16339;48.748;2.222;2022-11-20T09:21:43;12.15;;;5.50;;
29344;SDS011;16339;48.748;2.222;2022-11-20T09:24:12;12.98;;;5.90;;
29344;SDS011;16339;48.748;2.222;2022-11-20T09:26:41;13.15;;;5.95;;
29344;SDS011;16339;48.748;2.222;2022-11-20T09:29:12;13.75;;;6.30;;
29344;SDS011;16339;48.748;2.222;2022-11-20T09:31:41;16.27;;;7.03;;
29344;SDS011;16339;48.748;2.222;2022-11-20T09:34:10;11.90;;;5.85;;
29344;SDS011;16339;48.748;2.222;2022-11-20T09:36:38;12.75;;;5.93;;
29344;SDS011;16339;48.748;2.222;2022-11-20T09:39:07;15.13;;;6.32;;
29344;SDS011;16339;48.748;2.222;2022-11-20T09:41:43;21.90;;;8.00;;
29344;SDS011;16339;48.748;2.222;2022-11-20T09:44:37;16.45;;;7.75;;
29344;SDS011;16339;48.748;2.222;2022-11-20T09:47:16;14.98;;;6.05;;
29344;SDS011;16339;48.748;2.222;2022-11-20T09:49:56;19.65;;;6.20;;
29344;SDS011;16339;48.748;2.222;2022-11-20T09:52:37;16.40;;;5.35;;
29344;SDS011;16339;48.748;2.222;2022-11-20T09:55:16;13.38;;;5.38;;
29344;SDS011;16339;48.748;2.222;2022-11-20T09:57:46;29.83;;;5.43;;
29344;SDS011;16339;48.748;2.222;2022-11-20T10:00:21;14.85;;;5.70;;
29344;SDS011;16339;48.748;2.222;2022-11-20T10:02:52;17.58;;;5.35;;
29344;SDS011;16339;48.748;2.222;2022-11-20T10:05:27;12.13;;;4.93;;
29344;SDS011;16339;48.748;2.222;2022-11-20T10:08:01;12.82;;;4.80;;
29344;SDS011;16339;48.748;2.222;2022-11-20T10:10:38;12.07;;;4.63;;
29344;SDS011;16339;48.748;2.222;2022-11-20T10:13:17;14.35;;;4.60;;
29344;SDS011;16339;48.748;2.222;2022-11-20T10:16:01;12.65;;;4.22;;
29344;SDS011;16339;48.748;2.222;2022-11-20T10:18:43;16.75;;;4.72;;
29344;SDS011;16339;48.748;2.222;2022-11-20T10:21:25;9.35;;;3.97;;
29344;SDS011;16339;48.748;2.222;2022-11-20T10:24:05;11.10;;;4.20;;
29344;SDS011;16339;48.748;2.222;2022-11-20T10:26:53;12.48;;;4.30;;
29344;SDS011;16339;48.748;2.222;2022-11-20T10:29:32;14.27;;;4.63;;
29344;SDS011;16339;48.748;2.222;2022-11-20T10:32:04;14.00;;;4.60;;
29344;SDS011;16339;48.748;2.222;2022-11-20T10:34:42;13.20;;;4.93;;
29344;SDS011;16339;48.748;2.222;2022-11-20T10:37:18;13.70;;;4.15;;
29344;SDS011;16339;48.748;2.222;2022-11-20T10:39:50;10.98;;;4.60;;
29344;SDS011;16339;48.748;2.222;2022-11-20T10:42:26;12.40;;;3.88;;
29344;SDS011;16339;48.748;2.222;2022-11-20T10:45:02;11.60;;;3.72;;
29344;SDS011;16339;48.748;2.222;2022-11-20T10:47:50;12.27;;;3.58;;
29344;SDS011;16339;48.748;2.222;2022-11-20T10:50:20;9.45;;;3.60;;
29344;SDS011;16339;48.748;2.222;2022-11-20T10:52:52;9.48;;;3.97;;
29344;SDS011;16339;48.748;2.222;2022-11-20T10:55:33;11.80;;;3.83;;
29344;SDS011;16339;48.748;2.222;2022-11-20T10:58:09;8.48;;;3.80;;
29344;SDS011;16339;48.748;2.222;2022-11-20T11:00:41;9.00;;;3.90;;
29344;SDS011;16339;48.748;2.222;2022-11-20T11:03:19;9.25;;;3.35;;
29344;SDS011;16339;48.748;2.222;2022-11-20T11:05:53;11.80;;;3.42;;
29344;SDS011;16339;48.748;2.222;2022-11-20T11:08:27;10.38;;;3.92;;
29344;SDS011;16339;48.748;2.222;2022-11-20T11:11:02;8.68;;;4.18;;
29344;SDS011;16339;48.748;2.222;2022-11-20T11:13:43;9.90;;;4.40;;
29344;SDS011;16339;48.748;2.222;2022-11-20T11:16:16;14.23;;;3.90;;
29344;SDS011;16339;48.748;2.222;2022-11-20T11:19:02;11.13;;;3.65;;
29344;SDS011;16339;48.748;2.222;2022-11-20T11:21:32;7.43;;;3.20;;
29344;SDS011;16339;48.748;2.222;2022-11-20T11:24:02;13.07;;;4.82;;
29344;SDS011;16339;48.748;2.222;2022-11-20T11:26:32;17.65;;;7.50;;
29344;SDS011;16339;48.748;2.222;2022-11-20T11:29:04;22.67;;;10.13;;
29344;SDS011;16339;48.748;2.222;2022-11-20T11:31:33;9.55;;;4.60;;
29344;SDS011;16339;48.748;2.222;2022-11-20T11:34:08;5.97;;;3.70;;
29344;SDS011;16339;48.748;2.222;2022-11-20T11:36:40;6.88;;;2.97;;
29344;SDS011;16339;48.748;2.222;2022-11-20T11:39:11;5.63;;;3.28;;
29344;SDS011;16339;48.748;2.222;2022-11-20T11:41:43;7.03;;;3.03;;
29344;SDS011;16339;48.748;2.222;2022-11-20T11:44:15;6.53;;;3.42;;
29344;SDS011;16339;48.748;2.222;2022-11-20T11:46:57;5.45;;;3.15;;
29344;SDS011;16339;48.748;2.222;2022-11-20T11:49:29;6.32;;;3.35;;
29344;SDS011;16339;48.748;2.222;2022-11-20T11:52:02;7.35;;;2.83;;
29344;SDS011;16339;48.748;2.222;2022-11-20T11:54:38;7.18;;;2.97;;
29344;SDS011;16339;48.748;2.222;2022-11-20T11:57:14;5.65;;;2.92;;
29344;SDS011;16339;48.748;2.222;2022-11-20T11:59:51;4.75;;;2.67;;
29344;SDS011;16339;48.748;2.222;2022-11-20T12:02:34;5.95;;;2.95;;
29344;SDS011;16339;48.748;2.222;2022-11-20T12:05:13;8.57;;;3.05;;
29344;SDS011;16339;48.748;2.222;2022-11-20T12:07:47;4.97;;;3.28;;
29344;SDS011;16339;48.748;2.222;2022-11-20T12:10:21;63.75;;;5.28;;
29344;SDS011;16339;48.748;2.222;2022-11-20T12:15:26;6.75;;;3.10;;
29344;SDS011;16339;48.748;2.222;2022-11-20T12:17:57;9.95;;;3.10;;
29344;SDS011;16339;48.748;2.222;2022-11-20T12:20:29;5.88;;;3.00;;
29344;SDS011;16339;48.748;2.222;2022-11-20T12:23:05;6.25;;;3.10;;
29344;SDS011;16339;48.748;2.222;2022-11-20T12:25:37;9.90;;;4.03;;
29344;SDS011;16339;48.748;2.222;2022-11-20T12:28:11;7.63;;;3.55;;
29344;SDS011;16339;48.748;2.222;2022-11-20T12:34:17;4.82;;;3.20;;
29344;SDS011;16339;48.748;2.222;2022-11-20T12:37:00;7.53;;;3.45;;
29344;SDS011;16339;48.748;2.222;2022-11-20T12:39:41;7.88;;;3.50;;
29344;SDS011;16339;48.748;2.222;2022-11-20T12:45:22;8.00;;;3.63;;
29344;SDS011;16339;48.748;2.222;2022-11-20T12:48:04;13.65;;;4.55;;
29344;SDS011;16339;48.748;2.222;2022-11-20T12:50:59;5.10;;;3.33;;
29344;SDS011;16339;48.748;2.222;2022-11-20T12:53:44;7.93;;;3.90;;
29344;SDS011;16339;48.748;2.222;2022-11-20T12:56:27;14.82;;;4.15;;
29344;SDS011;16339;48.748;2.222;2022-11-20T12:59:11;9.93;;;3.97;;
29344;SDS011;16339;48.748;2.222;2022-11-20T13:01:55;13.70;;;4.05;;
29344;SDS011;16339;48.748;2.222;2022-11-20T13:04:40;11.15;;;3.70;;
29344;SDS011;16339;48.748;2.222;2022-11-20T13:07:22;9.10;;;3.90;;
29344;SDS011;16339;48.748;2.222;2022-11-20T13:09:57;11.38;;;4.28;;
29344;SDS011;16339;48.748;2.222;2022-11-20T13:12:29;15.85;;;4.20;;
29344;SDS011;16339;48.748;2.222;2022-11-20T13:15:04;7.60;;;4.25;;
29344;SDS011;16339;48.748;2.222;2022-11-20T13:17:40;9.20;;;4.50;;
29344;SDS011;16339;48.748;2.222;2022-11-20T13:20:16;257.95;;;13.45;;
29344;SDS011;16339;48.748;2.222;2022-11-20T13:22:46;10.93;;;4.90;;
29344;SDS011;16339;48.748;2.222;2022-11-20T13:25:25;10.68;;;4.00;;
29344;SDS011;16339;48.748;2.222;2022-11-20T13:27:56;18.80;;;6.13;;
29344;SDS011;16339;48.748;2.222;2022-11-20T13:30:26;8.25;;;4.15;;
29344;SDS011;16339;48.748;2.222;2022-11-20T13:32:56;12.50;;;4.43;;
29344;SDS011;16339;48.748;2.222;2022-11-20T13:35:30;15.65;;;4.70;;
29344;SDS011;16339;48.748;2.222;2022-11-20T13:38:06;9.68;;;4.38;;
29344;SDS011;16339;48.748;2.222;2022-11-20T13:40:49;11.02;;;4.15;;
29344;SDS011;16339;48.748;2.222;2022-11-20T13:43:21;12.38;;;3.75;;
29344;SDS011;16339;48.748;2.222;2022-11-20T13:45:55;7.65;;;3.60;;
29344;SDS011;16339;48.748;2.222;2022-11-20T13:48:27;11.93;;;3.90;;
29344;SDS011;16339;48.748;2.222;2022-11-20T13:54:01;14.80;;;3.78;;
29344;SDS011;16339;48.748;2.222;2022-11-20T13:56:56;16.17;;;4.40;;
29344;SDS011;16339;48.748;2.222;2022-11-20T13:59:38;17.30;;;4.82;;
29344;SDS011;16339;48.748;2.222;2022-11-20T14:02:16;10.75;;;4.25;;
29344;SDS011;16339;48.748;2.222;2022-11-20T14:04:48;17.30;;;4.32;;
29344;SDS011;16339;48.748;2.222;2022-11-20T14:07:20;12.05;;;4.57;;
29344;SDS011;16339;48.748;2.222;2022-11-20T14:09:51;18.33;;;5.18;;
29344;SDS011;16339;48.748;2.222;2022-11-20T14:12:28;19.50;;;6.13;;
29344;SDS011;16339;48.748;2.222;2022-11-20T14:14:57;13.63;;;3.85;;
29344;SDS011;16339;48.748;2.222;2022-11-20T14:17:29;24.55;;;4.93;;
29344;SDS011;16339;48.748;2.222;2022-11-20T14:20:00;8.80;;;3.92;;
29344;SDS011;16339;48.748;2.222;2022-11-20T14:22:32;18.35;;;4.03;;
29344;SDS011;16339;48.748;2.222;2022-11-20T14:25:02;24.23;;;6.55;;
29344;SDS011;16339;48.748;2.222;2022-11-20T14:27:37;10.02;;;4.20;;
29344;SDS011;16339;48.748;2.222;2022-11-20T14:30:11;13.63;;;4.03;;
29344;SDS011;16339;48.748;2.222;2022-11-20T14:32:43;13.55;;;4.15;;
29344;SDS011;16339;48.748;2.222;2022-11-20T14:35:14;15.80;;;4.35;;
29344;SDS011;16339;48.748;2.222;2022-11-20T14:37:50;16.75;;;4.57;;
29344;SDS011;16339;48.748;2.222;2022-11-20T14:40:24;13.43;;;3.53;;
29344;SDS011;16339;48.748;2.222;2022-11-20T14:42:57;12.65;;;3.20;;
29344;SDS011;16339;48.748;2.222;2022-11-20T14:45:27;14.32;;;3.75;;
29344;SDS011;16339;48.748;2.222;2022-11-20T14:47:56;22.98;;;7.78;;
29344;SDS011;16339;48.748;2.222;2022-11-20T14:52:57;16.98;;;3.55;;
29344;SDS011;16339;48.748;2.222;2022-11-20T14:55:28;12.50;;;3.23;;
29344;SDS011;16339;48.748;2.222;2022-11-20T14:58:03;15.65;;;3.17;;
29344;SDS011;16339;48.748;2.222;2022-11-20T15:00:33;32.47;;;3.60;;
29344;SDS011;16339;48.748;2.222;2022-11-20T15:03:03;15.50;;;3.15;;
29344;SDS011;16339;48.748;2.222;2022-11-20T15:05:47;16.73;;;2.95;;
29344;SDS011;16339;48.748;2.222;2022-11-20T15:08:16;15.00;;;3.05;;
29344;SDS011;16339;48.748;2.222;2022-11-20T15:10:46;24.45;;;3.22;;
29344;SDS011;16339;48.748;2.222;2022-11-20T15:13:22;11.35;;;2.75;;
29344;SDS011;16339;48.748;2.222;2022-11-20T15:15:54;30.00;;;3.45;;
29344;SDS011;16339;48.748;2.222;2022-11-20T15:18:26;24.92;;;3.67;;
29344;SDS011;16339;48.748;2.222;2022-11-20T15:20:57;15.85;;;2.85;;
29344;SDS011;16339;48.748;2.222;2022-11-20T15:23:29;23.05;;;3.65;;
29344;SDS011;16339;48.748;2.222;2022-11-20T15:25:58;17.27;;;3.20;;
29344;SDS011;16339;48.748;2.222;2022-11-20T15:28:30;22.70;;;3.85;;
29344;SDS011;16339;48.748;2.222;2022-11-20T15:31:00;21.73;;;3.20;;
29344;SDS011;16339;48.748;2.222;2022-11-20T15:33:30;25.25;;;3.08;;
29344;SDS011;16339;48.748;2.222;2022-11-20T15:35:58;23.83;;;3.10;;
29344;SDS011;16339;48.748;2.222;2022-11-20T15:38:28;15.90;;;2.80;;